KLRF/LRF METAR and TAF weather

Enter ICAO airport designator
Station Type Date Time Source
KLRF METAR 2020/09/20 06:56 UTC NOAA

KLRF 200656Z AUTO 04004KT 10SM CLR 14/10 A3019 RMK AO2 SLP225 T01400096


Station Type Date Time Source
KLRF Decoded METAR 2020/09/20 06:56 UTC NOAA

Little Rock Air Force Base, AR, United States (KLRF) 34-55N 092-09W
Sep 20, 2020 - 02:56 AM EDT / 2020.09.20 0656 UTC
Wind: from the NE (040 degrees) at 5 MPH (4 KT):0
Visibility: 10 mile(s):0
Sky conditions: clear
Temperature: 57.2 F (14.0 C)
Dew Point: 49.3 F (9.6 C)
Relative Humidity: 74%
Pressure (altimeter): 30.19 in. Hg (1022 hPa)
ob: KLRF 200656Z AUTO 04004KT 10SM CLR 14/10 A3019 RMK AO2 SLP225 T01400096
cycle: 7

Station Type Date Time Source
KLRF TAF 2020/09/20 07:06 UTC NOAA

TAF TAF KLRF 200700Z 2007/2113 05006KT 9999 FEW015 WS020/06030KT QNH3016INS
BECMG 2017/2018 08012KT 9999 SCT030 QNH3014INS TX27/2020Z TN13/2011Z

Example: see airport list